sensor_id;sensor_type;location;lat;lon;timestamp;temperature;humidity
53410;DHT22;66590;50.734;4.246;2023-06-14T00:02:07;21.60;64.50
53410;DHT22;66590;50.734;4.246;2023-06-14T00:04:35;21.60;64.50
53410;DHT22;66590;50.734;4.246;2023-06-14T00:07:02;21.40;64.50
53410;DHT22;66590;50.734;4.246;2023-06-14T00:09:30;21.40;64.50
53410;DHT22;66590;50.734;4.246;2023-06-14T00:11:57;21.50;64.40
53410;DHT22;66590;50.734;4.246;2023-06-14T00:14:24;21.50;64.60
53410;DHT22;66590;50.734;4.246;2023-06-14T00:16:53;21.40;64.90
53410;DHT22;66590;50.734;4.246;2023-06-14T00:19:21;21.40;65.00
53410;DHT22;66590;50.734;4.246;2023-06-14T00:21:48;21.30;65.50
53410;DHT22;66590;50.734;4.246;2023-06-14T00:24:15;21.30;66.00
53410;DHT22;66590;50.734;4.246;2023-06-14T00:26:42;21.30;66.30
53410;DHT22;66590;50.734;4.246;2023-06-14T00:29:09;21.20;66.60
53410;DHT22;66590;50.734;4.246;2023-06-14T00:31:36;21.20;66.90
53410;DHT22;66590;50.734;4.246;2023-06-14T00:34:05;21.10;67.20
53410;DHT22;66590;50.734;4.246;2023-06-14T00:36:32;21.00;67.30
53410;DHT22;66590;50.734;4.246;2023-06-14T00:38:59;21.00;67.80
53410;DHT22;66590;50.734;4.246;2023-06-14T00:41:26;20.90;67.60
53410;DHT22;66590;50.734;4.246;2023-06-14T00:43:53;20.80;67.60
53410;DHT22;66590;50.734;4.246;2023-06-14T00:46:20;20.80;68.00
53410;DHT22;66590;50.734;4.246;2023-06-14T00:48:47;20.80;67.80
53410;DHT22;66590;50.734;4.246;2023-06-14T00:51:16;20.90;67.10
53410;DHT22;66590;50.734;4.246;2023-06-14T00:53:43;20.80;68.40
53410;DHT22;66590;50.734;4.246;2023-06-14T00:56:10;20.60;68.40
53410;DHT22;66590;50.734;4.246;2023-06-14T00:58:37;20.60;68.60
53410;DHT22;66590;50.734;4.246;2023-06-14T01:01:04;20.60;68.30
53410;DHT22;66590;50.734;4.246;2023-06-14T01:03:31;20.60;68.60
53410;DHT22;66590;50.734;4.246;2023-06-14T01:06:05;20.40;69.10
53410;DHT22;66590;50.734;4.246;2023-06-14T01:08:46;20.40;69.50
53410;DHT22;66590;50.734;4.246;2023-06-14T01:11:18;20.40;69.10
53410;DHT22;66590;50.734;4.246;2023-06-14T01:13:48;20.40;69.30
53410;DHT22;66590;50.734;4.246;2023-06-14T01:16:17;20.30;69.70
53410;DHT22;66590;50.734;4.246;2023-06-14T01:18:44;20.30;69.80
53410;DHT22;66590;50.734;4.246;2023-06-14T01:21:20;20.20;70.80
53410;DHT22;66590;50.734;4.246;2023-06-14T01:23:49;20.20;69.60
53410;DHT22;66590;50.734;4.246;2023-06-14T01:26:16;20.20;70.50
53410;DHT22;66590;50.734;4.246;2023-06-14T01:28:45;20.30;69.50
53410;DHT22;66590;50.734;4.246;2023-06-14T01:31:12;20.40;68.80
53410;DHT22;66590;50.734;4.246;2023-06-14T01:33:40;20.20;69.40
53410;DHT22;66590;50.734;4.246;2023-06-14T01:36:08;20.10;70.00
53410;DHT22;66590;50.734;4.246;2023-06-14T01:38:36;20.10;70.00
53410;DHT22;66590;50.734;4.246;2023-06-14T01:41:06;20.10;69.70
53410;DHT22;66590;50.734;4.246;2023-06-14T01:43:34;20.10;69.70
53410;DHT22;66590;50.734;4.246;2023-06-14T01:46:02;20.10;69.90
53410;DHT22;66590;50.734;4.246;2023-06-14T01:48:30;20.10;69.80
53410;DHT22;66590;50.734;4.246;2023-06-14T01:50:57;20.00;70.60
53410;DHT22;66590;50.734;4.246;2023-06-14T01:53:24;19.90;71.00
53410;DHT22;66590;50.734;4.246;2023-06-14T01:55:51;19.70;71.20
53410;DHT22;66590;50.734;4.246;2023-06-14T01:58:19;19.70;71.50
53410;DHT22;66590;50.734;4.246;2023-06-14T02:00:46;19.60;71.60
53410;DHT22;66590;50.734;4.246;2023-06-14T02:03:13;19.60;71.50
53410;DHT22;66590;50.734;4.246;2023-06-14T02:05:40;19.60;71.30
53410;DHT22;66590;50.734;4.246;2023-06-14T02:08:08;19.60;71.10
53410;DHT22;66590;50.734;4.246;2023-06-14T02:10:35;19.60;70.60
53410;DHT22;66590;50.734;4.246;2023-06-14T02:13:03;19.70;70.30
53410;DHT22;66590;50.734;4.246;2023-06-14T02:15:31;19.70;69.90
53410;DHT22;66590;50.734;4.246;2023-06-14T02:17:58;19.70;70.20
53410;DHT22;66590;50.734;4.246;2023-06-14T02:20:25;19.80;70.10
53410;DHT22;66590;50.734;4.246;2023-06-14T02:22:52;19.80;71.10
53410;DHT22;66590;50.734;4.246;2023-06-14T02:25:19;19.70;70.40
53410;DHT22;66590;50.734;4.246;2023-06-14T02:27:47;19.70;70.40
53410;DHT22;66590;50.734;4.246;2023-06-14T02:30:14;19.80;70.70
53410;DHT22;66590;50.734;4.246;2023-06-14T02:32:43;19.80;70.30
53410;DHT22;66590;50.734;4.246;2023-06-14T02:35:10;19.80;70.60
53410;DHT22;66590;50.734;4.246;2023-06-14T02:37:37;19.60;70.90
53410;DHT22;66590;50.734;4.246;2023-06-14T02:40:05;19.60;71.10
53410;DHT22;66590;50.734;4.246;2023-06-14T02:42:33;19.50;71.30
53410;DHT22;66590;50.734;4.246;2023-06-14T02:45:00;19.50;71.40
53410;DHT22;66590;50.734;4.246;2023-06-14T02:47:27;19.50;71.50
53410;DHT22;66590;50.734;4.246;2023-06-14T02:49:56;19.50;71.50
53410;DHT22;66590;50.734;4.246;2023-06-14T02:52:23;19.60;71.70
53410;DHT22;66590;50.734;4.246;2023-06-14T02:54:50;19.50;72.10
53410;DHT22;66590;50.734;4.246;2023-06-14T02:57:17;19.50;72.30
53410;DHT22;66590;50.734;4.246;2023-06-14T02:59:45;19.50;72.20
53410;DHT22;66590;50.734;4.246;2023-06-14T03:02:12;19.40;72.10
53410;DHT22;66590;50.734;4.246;2023-06-14T03:04:39;19.40;72.40
53410;DHT22;66590;50.734;4.246;2023-06-14T03:07:08;19.40;72.40
53410;DHT22;66590;50.734;4.246;2023-06-14T03:09:35;19.40;72.30
53410;DHT22;66590;50.734;4.246;2023-06-14T03:12:02;19.30;72.50
53410;DHT22;66590;50.734;4.246;2023-06-14T03:14:30;19.40;72.40
53410;DHT22;66590;50.734;4.246;2023-06-14T03:16:57;19.40;72.40
53410;DHT22;66590;50.734;4.246;2023-06-14T03:19:25;19.30;72.30
53410;DHT22;66590;50.734;4.246;2023-06-14T03:21:52;19.30;72.30
53410;DHT22;66590;50.734;4.246;2023-06-14T03:24:20;19.30;72.40
53410;DHT22;66590;50.734;4.246;2023-06-14T03:26:47;19.30;72.20
53410;DHT22;66590;50.734;4.246;2023-06-14T03:29:14;19.30;72.30
53410;DHT22;66590;50.734;4.246;2023-06-14T03:31:58;19.30;71.70
53410;DHT22;66590;50.734;4.246;2023-06-14T03:34:25;19.50;71.90
53410;DHT22;66590;50.734;4.246;2023-06-14T03:36:53;19.60;71.50
53410;DHT22;66590;50.734;4.246;2023-06-14T03:39:21;19.50;71.70
53410;DHT22;66590;50.734;4.246;2023-06-14T03:41:49;19.40;72.10
53410;DHT22;66590;50.734;4.246;2023-06-14T03:44:17;19.30;72.20
53410;DHT22;66590;50.734;4.246;2023-06-14T03:46:44;19.30;72.40
53410;DHT22;66590;50.734;4.246;2023-06-14T03:49:11;19.30;72.50
53410;DHT22;66590;50.734;4.246;2023-06-14T03:51:39;19.30;72.80
53410;DHT22;66590;50.734;4.246;2023-06-14T03:54:06;19.20;73.00
53410;DHT22;66590;50.734;4.246;2023-06-14T03:56:55;19.10;73.40
53410;DHT22;66590;50.734;4.246;2023-06-14T03:59:22;19.20;73.60
53410;DHT22;66590;50.734;4.246;2023-06-14T04:01:49;19.10;73.40
53410;DHT22;66590;50.734;4.246;2023-06-14T04:04:16;19.10;73.50
53410;DHT22;66590;50.734;4.246;2023-06-14T04:06:43;19.20;73.50
53410;DHT22;66590;50.734;4.246;2023-06-14T04:09:10;19.10;73.70
53410;DHT22;66590;50.734;4.246;2023-06-14T04:11:37;19.10;73.70
53410;DHT22;66590;50.734;4.246;2023-06-14T04:14:06;19.10;73.80
53410;DHT22;66590;50.734;4.246;2023-06-14T04:16:33;19.20;73.50
53410;DHT22;66590;50.734;4.246;2023-06-14T04:19:00;19.10;73.70
53410;DHT22;66590;50.734;4.246;2023-06-14T04:21:27;19.20;73.90
53410;DHT22;66590;50.734;4.246;2023-06-14T04:23:54;19.20;74.10
53410;DHT22;66590;50.734;4.246;2023-06-14T04:26:22;19.20;73.50
53410;DHT22;66590;50.734;4.246;2023-06-14T04:28:52;19.30;73.60
53410;DHT22;66590;50.734;4.246;2023-06-14T04:31:20;19.30;73.60
53410;DHT22;66590;50.734;4.246;2023-06-14T04:33:48;19.40;73.70
53410;DHT22;66590;50.734;4.246;2023-06-14T04:36:15;19.40;73.10
53410;DHT22;66590;50.734;4.246;2023-06-14T04:38:42;19.40;73.70
53410;DHT22;66590;50.734;4.246;2023-06-14T04:41:09;19.30;73.60
53410;DHT22;66590;50.734;4.246;2023-06-14T04:43:36;19.40;74.30
53410;DHT22;66590;50.734;4.246;2023-06-14T04:46:04;19.40;73.90
53410;DHT22;66590;50.734;4.246;2023-06-14T04:48:32;19.40;74.30
53410;DHT22;66590;50.734;4.246;2023-06-14T04:50:59;19.50;74.30
53410;DHT22;66590;50.734;4.246;2023-06-14T04:53:27;19.60;74.50
53410;DHT22;66590;50.734;4.246;2023-06-14T04:55:55;19.60;74.50
53410;DHT22;66590;50.734;4.246;2023-06-14T04:58:22;19.70;74.50
53410;DHT22;66590;50.734;4.246;2023-06-14T05:00:49;19.90;74.10
53410;DHT22;66590;50.734;4.246;2023-06-14T05:03:16;19.80;73.80
53410;DHT22;66590;50.734;4.246;2023-06-14T05:05:45;19.90;73.70
53410;DHT22;66590;50.734;4.246;2023-06-14T05:08:12;19.90;74.10
53410;DHT22;66590;50.734;4.246;2023-06-14T05:10:39;19.90;74.70
53410;DHT22;66590;50.734;4.246;2023-06-14T05:13:06;20.00;75.00
53410;DHT22;66590;50.734;4.246;2023-06-14T05:15:34;19.90;75.10
53410;DHT22;66590;50.734;4.246;2023-06-14T05:18:01;19.90;75.10
53410;DHT22;66590;50.734;4.246;2023-06-14T05:20:28;19.90;74.60
53410;DHT22;66590;50.734;4.246;2023-06-14T05:22:56;20.00;73.80
53410;DHT22;66590;50.734;4.246;2023-06-14T05:25:24;20.10;74.40
53410;DHT22;66590;50.734;4.246;2023-06-14T05:27:51;20.20;73.90
53410;DHT22;66590;50.734;4.246;2023-06-14T05:30:18;20.30;72.90
53410;DHT22;66590;50.734;4.246;2023-06-14T05:32:45;20.30;72.90
53410;DHT22;66590;50.734;4.246;2023-06-14T05:35:13;20.40;73.20
53410;DHT22;66590;50.734;4.246;2023-06-14T05:37:40;20.40;73.20
53410;DHT22;66590;50.734;4.246;2023-06-14T05:40:10;20.50;72.30
53410;DHT22;66590;50.734;4.246;2023-06-14T05:42:37;20.60;72.40
53410;DHT22;66590;50.734;4.246;2023-06-14T05:45:06;20.70;72.30
53410;DHT22;66590;50.734;4.246;2023-06-14T05:47:33;20.80;71.40
53410;DHT22;66590;50.734;4.246;2023-06-14T05:50:00;21.00;70.50
53410;DHT22;66590;50.734;4.246;2023-06-14T05:52:27;21.20;69.10
53410;DHT22;66590;50.734;4.246;2023-06-14T05:54:54;21.50;68.40
53410;DHT22;66590;50.734;4.246;2023-06-14T05:57:23;22.10;67.30
53410;DHT22;66590;50.734;4.246;2023-06-14T05:59:50;23.20;63.60
53410;DHT22;66590;50.734;4.246;2023-06-14T06:02:17;24.30;61.00
53410;DHT22;66590;50.734;4.246;2023-06-14T06:04:45;25.40;58.20
53410;DHT22;66590;50.734;4.246;2023-06-14T06:07:12;26.00;56.10
53410;DHT22;66590;50.734;4.246;2023-06-14T06:09:39;26.70;54.80
53410;DHT22;66590;50.734;4.246;2023-06-14T06:12:09;27.60;53.70
53410;DHT22;66590;50.734;4.246;2023-06-14T06:14:37;27.80;52.60
53410;DHT22;66590;50.734;4.246;2023-06-14T06:17:05;27.90;52.80
53410;DHT22;66590;50.734;4.246;2023-06-14T06:19:32;27.70;52.40
53410;DHT22;66590;50.734;4.246;2023-06-14T06:21:59;28.10;52.20
53410;DHT22;66590;50.734;4.246;2023-06-14T06:24:26;28.60;51.60
53410;DHT22;66590;50.734;4.246;2023-06-14T06:26:54;28.90;51.00
53410;DHT22;66590;50.734;4.246;2023-06-14T06:29:21;28.80;50.80
53410;DHT22;66590;50.734;4.246;2023-06-14T06:31:49;29.10;50.80
53410;DHT22;66590;50.734;4.246;2023-06-14T06:34:17;29.30;49.90
53410;DHT22;66590;50.734;4.246;2023-06-14T06:36:44;30.00;49.20
53410;DHT22;66590;50.734;4.246;2023-06-14T06:39:11;29.60;48.80
53410;DHT22;66590;50.734;4.246;2023-06-14T06:41:38;29.20;49.50
53410;DHT22;66590;50.734;4.246;2023-06-14T06:44:05;29.40;50.00
53410;DHT22;66590;50.734;4.246;2023-06-14T06:46:33;29.80;49.00
53410;DHT22;66590;50.734;4.246;2023-06-14T06:49:02;29.70;49.80
53410;DHT22;66590;50.734;4.246;2023-06-14T06:51:29;29.90;49.40
53410;DHT22;66590;50.734;4.246;2023-06-14T06:53:56;30.30;48.40
53410;DHT22;66590;50.734;4.246;2023-06-14T06:56:23;30.40;48.00
53410;DHT22;66590;50.734;4.246;2023-06-14T06:58:53;30.40;48.20
53410;DHT22;66590;50.734;4.246;2023-06-14T07:01:20;30.70;48.30
53410;DHT22;66590;50.734;4.246;2023-06-14T07:03:48;30.60;47.90
53410;DHT22;66590;50.734;4.246;2023-06-14T07:06:16;30.90;47.70
53410;DHT22;66590;50.734;4.246;2023-06-14T07:08:43;30.60;47.70
53410;DHT22;66590;50.734;4.246;2023-06-14T07:11:12;30.40;48.00
53410;DHT22;66590;50.734;4.246;2023-06-14T07:13:39;30.10;48.50
53410;DHT22;66590;50.734;4.246;2023-06-14T07:16:06;30.50;48.00
53410;DHT22;66590;50.734;4.246;2023-06-14T07:18:33;30.90;48.00
53410;DHT22;66590;50.734;4.246;2023-06-14T07:21:02;30.80;47.50
53410;DHT22;66590;50.734;4.246;2023-06-14T07:23:30;30.30;48.30
53410;DHT22;66590;50.734;4.246;2023-06-14T07:25:58;29.90;48.80
53410;DHT22;66590;50.734;4.246;2023-06-14T07:28:25;29.80;48.90
53410;DHT22;66590;50.734;4.246;2023-06-14T07:30:52;30.20;49.10
53410;DHT22;66590;50.734;4.246;2023-06-14T07:33:19;30.60;48.20
53410;DHT22;66590;50.734;4.246;2023-06-14T07:35:46;30.80;48.60
53410;DHT22;66590;50.734;4.246;2023-06-14T07:38:13;30.80;48.40
53410;DHT22;66590;50.734;4.246;2023-06-14T07:40:42;31.10;47.60
53410;DHT22;66590;50.734;4.246;2023-06-14T07:43:09;31.60;47.60
53410;DHT22;66590;50.734;4.246;2023-06-14T07:45:37;31.70;46.90
53410;DHT22;66590;50.734;4.246;2023-06-14T07:48:04;31.70;47.10
53410;DHT22;66590;50.734;4.246;2023-06-14T07:50:32;31.60;47.30
53410;DHT22;66590;50.734;4.246;2023-06-14T07:52:59;31.70;46.00
53410;DHT22;66590;50.734;4.246;2023-06-14T07:55:27;31.80;46.10
53410;DHT22;66590;50.734;4.246;2023-06-14T07:58:03;32.30;45.80
53410;DHT22;66590;50.734;4.246;2023-06-14T08:00:31;32.00;45.90
53410;DHT22;66590;50.734;4.246;2023-06-14T08:02:58;32.10;46.10
53410;DHT22;66590;50.734;4.246;2023-06-14T08:05:27;32.60;46.00
53410;DHT22;66590;50.734;4.246;2023-06-14T08:07:55;32.60;45.50
53410;DHT22;66590;50.734;4.246;2023-06-14T08:10:22;32.40;45.20
53410;DHT22;66590;50.734;4.246;2023-06-14T08:12:50;32.20;46.30
53410;DHT22;66590;50.734;4.246;2023-06-14T08:15:18;32.20;46.00
53410;DHT22;66590;50.734;4.246;2023-06-14T08:17:49;32.30;45.60
53410;DHT22;66590;50.734;4.246;2023-06-14T08:20:16;32.70;45.30
53410;DHT22;66590;50.734;4.246;2023-06-14T08:22:44;32.70;45.40
53410;DHT22;66590;50.734;4.246;2023-06-14T08:25:11;32.30;45.60
53410;DHT22;66590;50.734;4.246;2023-06-14T08:27:38;32.50;44.30
53410;DHT22;66590;50.734;4.246;2023-06-14T08:30:06;32.10;44.10
53410;DHT22;66590;50.734;4.246;2023-06-14T08:32:35;31.70;43.90
53410;DHT22;66590;50.734;4.246;2023-06-14T08:35:02;31.30;44.10
53410;DHT22;66590;50.734;4.246;2023-06-14T08:37:38;31.50;44.20
53410;DHT22;66590;50.734;4.246;2023-06-14T08:40:12;31.60;44.60
53410;DHT22;66590;50.734;4.246;2023-06-14T08:42:45;31.90;44.10
53410;DHT22;66590;50.734;4.246;2023-06-14T08:45:13;32.10;43.40
53410;DHT22;66590;50.734;4.246;2023-06-14T08:47:42;32.20;43.80
53410;DHT22;66590;50.734;4.246;2023-06-14T08:50:10;32.50;43.70
53410;DHT22;66590;50.734;4.246;2023-06-14T08:52:55;32.90;43.00
53410;DHT22;66590;50.734;4.246;2023-06-14T08:55:24;32.80;43.80
53410;DHT22;66590;50.734;4.246;2023-06-14T08:57:51;33.00;44.00
53410;DHT22;66590;50.734;4.246;2023-06-14T09:00:20;33.00;42.80
53410;DHT22;66590;50.734;4.246;2023-06-14T09:02:50;33.30;41.40
53410;DHT22;66590;50.734;4.246;2023-06-14T09:05:17;32.90;41.40
53410;DHT22;66590;50.734;4.246;2023-06-14T09:07:44;32.60;42.50
53410;DHT22;66590;50.734;4.246;2023-06-14T09:10:14;33.00;41.90
53410;DHT22;66590;50.734;4.246;2023-06-14T09:12:42;32.70;40.80
53410;DHT22;66590;50.734;4.246;2023-06-14T09:15:09;32.90;41.40
53410;DHT22;66590;50.734;4.246;2023-06-14T09:17:37;32.80;40.60
53410;DHT22;66590;50.734;4.246;2023-06-14T09:20:08;32.90;40.70
53410;DHT22;66590;50.734;4.246;2023-06-14T09:22:36;32.30;41.40
53410;DHT22;66590;50.734;4.246;2023-06-14T09:25:04;32.30;42.40
53410;DHT22;66590;50.734;4.246;2023-06-14T09:27:31;32.20;42.00
53410;DHT22;66590;50.734;4.246;2023-06-14T09:30:02;32.40;41.70
53410;DHT22;66590;50.734;4.246;2023-06-14T09:32:30;32.70;42.10
53410;DHT22;66590;50.734;4.246;2023-06-14T09:34:58;32.80;42.50
53410;DHT22;66590;50.734;4.246;2023-06-14T09:37:31;33.10;40.70
53410;DHT22;66590;50.734;4.246;2023-06-14T09:39:58;33.10;41.90
53410;DHT22;66590;50.734;4.246;2023-06-14T09:42:26;33.00;40.30
53410;DHT22;66590;50.734;4.246;2023-06-14T09:44:54;32.90;42.00
53410;DHT22;66590;50.734;4.246;2023-06-14T09:47:22;32.60;41.50
53410;DHT22;66590;50.734;4.246;2023-06-14T09:49:50;32.40;42.60
53410;DHT22;66590;50.734;4.246;2023-06-14T09:52:19;32.10;43.60
53410;DHT22;66590;50.734;4.246;2023-06-14T09:54:48;32.10;42.80
53410;DHT22;66590;50.734;4.246;2023-06-14T09:57:16;32.10;42.70
53410;DHT22;66590;50.734;4.246;2023-06-14T09:59:44;31.90;43.10
53410;DHT22;66590;50.734;4.246;2023-06-14T10:02:18;31.80;42.30
53410;DHT22;66590;50.734;4.246;2023-06-14T10:04:53;32.00;42.60
53410;DHT22;66590;50.734;4.246;2023-06-14T10:07:23;31.70;42.40
53410;DHT22;66590;50.734;4.246;2023-06-14T10:09:54;31.40;42.90
53410;DHT22;66590;50.734;4.246;2023-06-14T10:12:21;31.40;44.60
53410;DHT22;66590;50.734;4.246;2023-06-14T10:14:49;31.70;44.00
53410;DHT22;66590;50.734;4.246;2023-06-14T10:17:25;31.70;44.00
53410;DHT22;66590;50.734;4.246;2023-06-14T10:20:10;31.80;42.10
53410;DHT22;66590;50.734;4.246;2023-06-14T10:22:47;31.80;42.50
53410;DHT22;66590;50.734;4.246;2023-06-14T10:25:28;32.10;42.90
53410;DHT22;66590;50.734;4.246;2023-06-14T10:28:16;32.30;41.80
53410;DHT22;66590;50.734;4.246;2023-06-14T10:31:06;32.30;41.60
53410;DHT22;66590;50.734;4.246;2023-06-14T10:33:34;32.10;43.30
53410;DHT22;66590;50.734;4.246;2023-06-14T10:36:25;31.80;44.10
53410;DHT22;66590;50.734;4.246;2023-06-14T10:38:58;31.80;44.60
53410;DHT22;66590;50.734;4.246;2023-06-14T10:41:28;31.90;43.50
53410;DHT22;66590;50.734;4.246;2023-06-14T10:46:57;32.10;43.80
53410;DHT22;66590;50.734;4.246;2023-06-14T10:49:41;32.20;42.90
53410;DHT22;66590;50.734;4.246;2023-06-14T10:52:09;32.10;42.50
53410;DHT22;66590;50.734;4.246;2023-06-14T10:54:36;32.30;42.40
53410;DHT22;66590;50.734;4.246;2023-06-14T10:57:06;32.40;40.50
53410;DHT22;66590;50.734;4.246;2023-06-14T10:59:33;32.30;40.90
53410;DHT22;66590;50.734;4.246;2023-06-14T11:02:20;32.00;42.80
53410;DHT22;66590;50.734;4.246;2023-06-14T11:04:53;32.30;42.50
53410;DHT22;66590;50.734;4.246;2023-06-14T11:07:46;32.30;41.10
53410;DHT22;66590;50.734;4.246;2023-06-14T11:10:23;32.50;41.70
53410;DHT22;66590;50.734;4.246;2023-06-14T11:12:55;32.50;40.70
53410;DHT22;66590;50.734;4.246;2023-06-14T11:15:28;32.70;40.70
53410;DHT22;66590;50.734;4.246;2023-06-14T11:17:55;33.00;41.40
53410;DHT22;66590;50.734;4.246;2023-06-14T11:20:25;32.90;39.90
53410;DHT22;66590;50.734;4.246;2023-06-14T11:22:54;32.80;40.60
53410;DHT22;66590;50.734;4.246;2023-06-14T11:25:21;32.60;39.60
53410;DHT22;66590;50.734;4.246;2023-06-14T11:27:49;32.10;40.50
53410;DHT22;66590;50.734;4.246;2023-06-14T11:30:18;31.90;40.10
53410;DHT22;66590;50.734;4.246;2023-06-14T11:32:47;31.70;40.90
53410;DHT22;66590;50.734;4.246;2023-06-14T11:35:14;31.70;41.00
53410;DHT22;66590;50.734;4.246;2023-06-14T11:37:42;31.70;40.80
53410;DHT22;66590;50.734;4.246;2023-06-14T11:40:10;32.10;40.70
53410;DHT22;66590;50.734;4.246;2023-06-14T11:42:38;32.10;39.80
53410;DHT22;66590;50.734;4.246;2023-06-14T11:45:08;32.30;39.40
53410;DHT22;66590;50.734;4.246;2023-06-14T11:47:43;32.40;38.90
53410;DHT22;66590;50.734;4.246;2023-06-14T11:50:10;32.10;38.40
53410;DHT22;66590;50.734;4.246;2023-06-14T11:52:38;31.90;38.70
53410;DHT22;66590;50.734;4.246;2023-06-14T11:55:06;32.20;40.50
53410;DHT22;66590;50.734;4.246;2023-06-14T11:57:34;32.50;39.20
53410;DHT22;66590;50.734;4.246;2023-06-14T12:00:03;32.80;38.30
53410;DHT22;66590;50.734;4.246;2023-06-14T12:02:31;32.80;39.30
53410;DHT22;66590;50.734;4.246;2023-06-14T12:05:04;33.00;38.40
53410;DHT22;66590;50.734;4.246;2023-06-14T12:07:32;32.90;37.90
53410;DHT22;66590;50.734;4.246;2023-06-14T12:10:07;33.10;37.70
53410;DHT22;66590;50.734;4.246;2023-06-14T12:12:36;33.60;36.20
53410;DHT22;66590;50.734;4.246;2023-06-14T12:15:04;33.90;36.90
53410;DHT22;66590;50.734;4.246;2023-06-14T12:17:33;33.80;38.10
53410;DHT22;66590;50.734;4.246;2023-06-14T12:20:07;33.40;37.50
53410;DHT22;66590;50.734;4.246;2023-06-14T12:22:34;33.30;38.80
53410;DHT22;66590;50.734;4.246;2023-06-14T12:25:02;33.30;37.80
53410;DHT22;66590;50.734;4.246;2023-06-14T12:27:29;33.20;39.20
53410;DHT22;66590;50.734;4.246;2023-06-14T12:30:00;33.10;39.20
53410;DHT22;66590;50.734;4.246;2023-06-14T12:32:28;32.90;38.00
53410;DHT22;66590;50.734;4.246;2023-06-14T12:34:55;32.90;38.50
53410;DHT22;66590;50.734;4.246;2023-06-14T12:37:23;32.40;38.60
53410;DHT22;66590;50.734;4.246;2023-06-14T12:39:51;32.30;40.20
53410;DHT22;66590;50.734;4.246;2023-06-14T12:42:18;32.40;40.10
53410;DHT22;66590;50.734;4.246;2023-06-14T12:44:45;32.40;40.50
53410;DHT22;66590;50.734;4.246;2023-06-14T12:47:12;32.10;40.80
53410;DHT22;66590;50.734;4.246;2023-06-14T12:49:39;32.10;41.20
53410;DHT22;66590;50.734;4.246;2023-06-14T12:52:07;32.40;39.20
53410;DHT22;66590;50.734;4.246;2023-06-14T12:54:36;32.80;40.70
53410;DHT22;66590;50.734;4.246;2023-06-14T12:57:07;32.70;39.20
53410;DHT22;66590;50.734;4.246;2023-06-14T12:59:34;32.40;38.60
53410;DHT22;66590;50.734;4.246;2023-06-14T13:02:12;32.50;39.70
53410;DHT22;66590;50.734;4.246;2023-06-14T13:04:40;32.60;39.40
53410;DHT22;66590;50.734;4.246;2023-06-14T13:07:07;32.60;40.20
53410;DHT22;66590;50.734;4.246;2023-06-14T13:09:36;32.80;39.80
53410;DHT22;66590;50.734;4.246;2023-06-14T13:12:03;32.60;39.60
53410;DHT22;66590;50.734;4.246;2023-06-14T13:14:30;32.30;39.30
53410;DHT22;66590;50.734;4.246;2023-06-14T13:16:57;32.20;39.40
53410;DHT22;66590;50.734;4.246;2023-06-14T13:19:24;31.90;39.40
53410;DHT22;66590;50.734;4.246;2023-06-14T13:21:51;31.60;40.70
53410;DHT22;66590;50.734;4.246;2023-06-14T13:24:19;31.70;40.10
53410;DHT22;66590;50.734;4.246;2023-06-14T13:26:47;31.90;39.10
53410;DHT22;66590;50.734;4.246;2023-06-14T13:29:14;31.80;39.80
53410;DHT22;66590;50.734;4.246;2023-06-14T13:31:41;31.80;39.80
53410;DHT22;66590;50.734;4.246;2023-06-14T13:34:08;32.00;39.10
53410;DHT22;66590;50.734;4.246;2023-06-14T13:36:35;32.10;39.90
53410;DHT22;66590;50.734;4.246;2023-06-14T13:39:03;31.90;40.40
53410;DHT22;66590;50.734;4.246;2023-06-14T13:41:30;31.80;41.30
53410;DHT22;66590;50.734;4.246;2023-06-14T13:43:59;31.70;40.50
53410;DHT22;66590;50.734;4.246;2023-06-14T13:46:26;31.90;40.10
53410;DHT22;66590;50.734;4.246;2023-06-14T13:48:53;31.80;39.70
53410;DHT22;66590;50.734;4.246;2023-06-14T13:51:20;31.90;39.10
53410;DHT22;66590;50.734;4.246;2023-06-14T13:53:48;31.80;40.00
53410;DHT22;66590;50.734;4.246;2023-06-14T13:56:15;32.00;39.60
53410;DHT22;66590;50.734;4.246;2023-06-14T13:58:43;32.10;39.70
53410;DHT22;66590;50.734;4.246;2023-06-14T14:01:11;32.00;39.70
53410;DHT22;66590;50.734;4.246;2023-06-14T14:03:39;32.10;38.70
53410;DHT22;66590;50.734;4.246;2023-06-14T14:06:06;32.10;39.40
53410;DHT22;66590;50.734;4.246;2023-06-14T14:08:33;31.90;39.00
53410;DHT22;66590;50.734;4.246;2023-06-14T14:11:00;31.90;39.10
53410;DHT22;66590;50.734;4.246;2023-06-14T14:13:27;31.90;38.50
53410;DHT22;66590;50.734;4.246;2023-06-14T14:15:56;31.80;40.10
53410;DHT22;66590;50.734;4.246;2023-06-14T14:18:25;31.30;40.00
53410;DHT22;66590;50.734;4.246;2023-06-14T14:20:54;30.60;40.40
53410;DHT22;66590;50.734;4.246;2023-06-14T14:23:22;30.30;41.80
53410;DHT22;66590;50.734;4.246;2023-06-14T14:25:49;30.30;40.90
53410;DHT22;66590;50.734;4.246;2023-06-14T14:28:16;30.60;41.10
53410;DHT22;66590;50.734;4.246;2023-06-14T14:30:43;30.90;40.80
53410;DHT22;66590;50.734;4.246;2023-06-14T14:33:10;31.30;40.10
53410;DHT22;66590;50.734;4.246;2023-06-14T14:35:39;31.50;38.90
53410;DHT22;66590;50.734;4.246;2023-06-14T14:38:06;31.70;38.50
53410;DHT22;66590;50.734;4.246;2023-06-14T14:40:33;31.60;38.60
53410;DHT22;66590;50.734;4.246;2023-06-14T14:43:00;31.60;38.30
53410;DHT22;66590;50.734;4.246;2023-06-14T14:45:28;31.60;38.50
53410;DHT22;66590;50.734;4.246;2023-06-14T14:47:55;31.50;38.20
53410;DHT22;66590;50.734;4.246;2023-06-14T14:50:25;31.50;38.40
53410;DHT22;66590;50.734;4.246;2023-06-14T14:52:54;31.50;37.70
53410;DHT22;66590;50.734;4.246;2023-06-14T14:55:21;31.50;37.90
53410;DHT22;66590;50.734;4.246;2023-06-14T14:57:48;31.30;39.10
53410;DHT22;66590;50.734;4.246;2023-06-14T15:00:16;31.20;38.10
53410;DHT22;66590;50.734;4.246;2023-06-14T15:02:44;30.80;38.10
53410;DHT22;66590;50.734;4.246;2023-06-14T15:05:11;30.80;38.30
53410;DHT22;66590;50.734;4.246;2023-06-14T15:07:38;30.90;38.60
53410;DHT22;66590;50.734;4.246;2023-06-14T15:10:08;30.80;38.00
53410;DHT22;66590;50.734;4.246;2023-06-14T15:12:35;30.70;38.50
53410;DHT22;66590;50.734;4.246;2023-06-14T15:15:03;30.80;37.90
53410;DHT22;66590;50.734;4.246;2023-06-14T15:17:30;30.90;38.10
53410;DHT22;66590;50.734;4.246;2023-06-14T15:19:57;31.00;37.60
53410;DHT22;66590;50.734;4.246;2023-06-14T15:22:25;30.80;37.80
53410;DHT22;66590;50.734;4.246;2023-06-14T15:24:52;30.80;38.30
53410;DHT22;66590;50.734;4.246;2023-06-14T15:27:20;30.50;38.30
53410;DHT22;66590;50.734;4.246;2023-06-14T15:29:47;30.50;38.30
53410;DHT22;66590;50.734;4.246;2023-06-14T15:32:17;30.40;38.20
53410;DHT22;66590;50.734;4.246;2023-06-14T15:34:45;30.30;38.80
53410;DHT22;66590;50.734;4.246;2023-06-14T15:37:12;30.20;38.30
53410;DHT22;66590;50.734;4.246;2023-06-14T15:39:39;30.50;37.80
53410;DHT22;66590;50.734;4.246;2023-06-14T15:42:07;30.60;38.10